ESSV/VBY METAR and TAF weather

Enter ICAO airport designator
Station Type Date Time Source
ESSV METAR 2019/06/17 13:20 UTC NOAA

ESSV 171320Z 23011KT CAVOK 22/11 Q1018


Station Type Date Time Source
ESSV Decoded METAR 2019/06/17 13:20 UTC NOAA

Visby Flygplats, Sweden (ESSV) 57-40N 018-21E 47M
Jun 17, 2019 - 09:20 AM EDT / 2019.06.17 1320 UTC
Wind: from the SW (230 degrees) at 13 MPH (11 KT):0
Visibility: greater than 7 mile(s):0
Temperature: 71 F (22 C)
Dew Point: 51 F (11 C)
Relative Humidity: 49%
Pressure (altimeter): 30.06 in. Hg (1018 hPa)
ob: ESSV 171320Z 23011KT CAVOK 22/11 Q1018
cycle: 13

Station Type Date Time Source
ESSV TAF 2017/09/20 09:39 UTC NOAA

TAF COR TAF COR ESSV 200840Z 2009/2021 10005KT 9999 BKN030 PROB40 2009/2016 4000 TS SHRA BKN015CB

Example: see airport list